sensor_id;sensor_type;location;lat;lon;timestamp;P1;durP1;ratioP1;P2;durP2;ratioP2
49998;SDS011;68071;45.062;7.356;2023-07-08T00:00:21;6.95;;;4.78;;
49998;SDS011;68071;45.062;7.356;2023-07-08T00:03:28;5.78;;;4.55;;
49998;SDS011;68071;45.062;7.356;2023-07-08T00:06:32;6.15;;;4.70;;
49998;SDS011;68071;45.062;7.356;2023-07-08T00:09:37;5.43;;;4.60;;
49998;SDS011;68071;45.062;7.356;2023-07-08T00:12:41;5.68;;;4.60;;
49998;SDS011;68071;45.062;7.356;2023-07-08T00:15:46;6.88;;;5.03;;
49998;SDS011;68071;45.062;7.356;2023-07-08T00:18:50;5.23;;;4.60;;
49998;SDS011;68071;45.062;7.356;2023-07-08T00:21:54;6.88;;;5.28;;
49998;SDS011;68071;45.062;7.356;2023-07-08T00:24:58;7.25;;;5.10;;
49998;SDS011;68071;45.062;7.356;2023-07-08T00:28:04;5.95;;;5.35;;
49998;SDS011;68071;45.062;7.356;2023-07-08T00:31:12;7.55;;;6.25;;
49998;SDS011;68071;45.062;7.356;2023-07-08T00:34:19;8.48;;;6.55;;
49998;SDS011;68071;45.062;7.356;2023-07-08T00:37:23;11.55;;;7.35;;
49998;SDS011;68071;45.062;7.356;2023-07-08T00:40:28;8.98;;;8.05;;
49998;SDS011;68071;45.062;7.356;2023-07-08T00:43:38;9.40;;;8.30;;
49998;SDS011;68071;45.062;7.356;2023-07-08T00:49:57;10.77;;;9.35;;
49998;SDS011;68071;45.062;7.356;2023-07-08T00:53:23;10.13;;;8.98;;
49998;SDS011;68071;45.062;7.356;2023-07-08T00:56:30;12.68;;;10.45;;
49998;SDS011;68071;45.062;7.356;2023-07-08T00:59:46;12.65;;;11.45;;
49998;SDS011;68071;45.062;7.356;2023-07-08T01:02:56;11.18;;;8.18;;
49998;SDS011;68071;45.062;7.356;2023-07-08T01:06:01;8.65;;;7.75;;
49998;SDS011;68071;45.062;7.356;2023-07-08T01:09:08;9.35;;;8.07;;
49998;SDS011;68071;45.062;7.356;2023-07-08T01:12:16;9.20;;;7.60;;
49998;SDS011;68071;45.062;7.356;2023-07-08T01:15:26;9.02;;;8.00;;
49998;SDS011;68071;45.062;7.356;2023-07-08T01:18:36;8.95;;;8.05;;
49998;SDS011;68071;45.062;7.356;2023-07-08T01:25:11;8.60;;;7.03;;
49998;SDS011;68071;45.062;7.356;2023-07-08T01:28:17;7.03;;;6.32;;
49998;SDS011;68071;45.062;7.356;2023-07-08T01:31:23;7.53;;;5.90;;
49998;SDS011;68071;45.062;7.356;2023-07-08T01:34:27;7.75;;;6.88;;
49998;SDS011;68071;45.062;7.356;2023-07-08T01:38:14;8.70;;;7.25;;
49998;SDS011;68071;45.062;7.356;2023-07-08T01:41:04;9.73;;;6.63;;
49998;SDS011;68071;45.062;7.356;2023-07-08T01:47:35;8.60;;;7.70;;
49998;SDS011;68071;45.062;7.356;2023-07-08T01:50:59;9.20;;;8.20;;
49998;SDS011;68071;45.062;7.356;2023-07-08T01:57:10;8.85;;;7.70;;
49998;SDS011;68071;45.062;7.356;2023-07-08T02:00:14;7.63;;;6.93;;
49998;SDS011;68071;45.062;7.356;2023-07-08T02:03:20;8.85;;;7.38;;
49998;SDS011;68071;45.062;7.356;2023-07-08T02:06:25;8.95;;;7.18;;
49998;SDS011;68071;45.062;7.356;2023-07-08T02:09:29;8.02;;;7.25;;
49998;SDS011;68071;45.062;7.356;2023-07-08T02:12:33;8.88;;;7.97;;
49998;SDS011;68071;45.062;7.356;2023-07-08T02:15:37;9.70;;;8.55;;
49998;SDS011;68071;45.062;7.356;2023-07-08T02:18:41;9.90;;;8.43;;
49998;SDS011;68071;45.062;7.356;2023-07-08T02:21:46;7.72;;;7.03;;
49998;SDS011;68071;45.062;7.356;2023-07-08T02:24:50;8.95;;;8.05;;
49998;SDS011;68071;45.062;7.356;2023-07-08T02:27:54;9.20;;;8.10;;
49998;SDS011;68071;45.062;7.356;2023-07-08T02:31:01;10.63;;;8.60;;
49998;SDS011;68071;45.062;7.356;2023-07-08T02:34:06;12.57;;;9.65;;
49998;SDS011;68071;45.062;7.356;2023-07-08T02:37:09;10.23;;;8.98;;
49998;SDS011;68071;45.062;7.356;2023-07-08T02:40:13;10.25;;;8.35;;
49998;SDS011;68071;45.062;7.356;2023-07-08T02:43:18;7.93;;;7.13;;
49998;SDS011;68071;45.062;7.356;2023-07-08T02:46:22;9.68;;;7.60;;
49998;SDS011;68071;45.062;7.356;2023-07-08T02:49:25;7.15;;;6.43;;
49998;SDS011;68071;45.062;7.356;2023-07-08T02:52:30;9.60;;;7.78;;
49998;SDS011;68071;45.062;7.356;2023-07-08T02:55:34;9.95;;;8.88;;
49998;SDS011;68071;45.062;7.356;2023-07-08T02:58:38;12.02;;;10.75;;
49998;SDS011;68071;45.062;7.356;2023-07-08T03:01:41;10.88;;;9.77;;
49998;SDS011;68071;45.062;7.356;2023-07-08T03:04:46;10.35;;;8.55;;
49998;SDS011;68071;45.062;7.356;2023-07-08T03:07:50;10.20;;;8.70;;
49998;SDS011;68071;45.062;7.356;2023-07-08T03:10:55;11.07;;;9.27;;
49998;SDS011;68071;45.062;7.356;2023-07-08T03:14:03;11.35;;;10.25;;
49998;SDS011;68071;45.062;7.356;2023-07-08T03:17:08;10.57;;;9.57;;
49998;SDS011;68071;45.062;7.356;2023-07-08T03:20:12;12.60;;;11.05;;
49998;SDS011;68071;45.062;7.356;2023-07-08T03:23:17;12.77;;;11.30;;
49998;SDS011;68071;45.062;7.356;2023-07-08T03:26:22;10.68;;;9.68;;
49998;SDS011;68071;45.062;7.356;2023-07-08T03:29:29;12.20;;;9.68;;
49998;SDS011;68071;45.062;7.356;2023-07-08T03:32:33;10.65;;;9.55;;
49998;SDS011;68071;45.062;7.356;2023-07-08T03:35:37;9.82;;;8.85;;
49998;SDS011;68071;45.062;7.356;2023-07-08T03:38:44;11.32;;;9.48;;
49998;SDS011;68071;45.062;7.356;2023-07-08T03:41:49;9.75;;;8.68;;
49998;SDS011;68071;45.062;7.356;2023-07-08T03:44:56;10.60;;;9.50;;
49998;SDS011;68071;45.062;7.356;2023-07-08T03:48:02;11.35;;;9.93;;
49998;SDS011;68071;45.062;7.356;2023-07-08T03:51:30;10.05;;;9.10;;
49998;SDS011;68071;45.062;7.356;2023-07-08T03:54:34;9.23;;;8.27;;
49998;SDS011;68071;45.062;7.356;2023-07-08T03:57:38;10.68;;;8.82;;
49998;SDS011;68071;45.062;7.356;2023-07-08T04:00:42;10.25;;;9.05;;
49998;SDS011;68071;45.062;7.356;2023-07-08T04:03:47;10.50;;;9.05;;
49998;SDS011;68071;45.062;7.356;2023-07-08T04:06:52;11.93;;;9.45;;
49998;SDS011;68071;45.062;7.356;2023-07-08T04:09:58;10.63;;;9.52;;
49998;SDS011;68071;45.062;7.356;2023-07-08T04:13:02;11.00;;;9.73;;
49998;SDS011;68071;45.062;7.356;2023-07-08T04:16:06;9.32;;;8.48;;
49998;SDS011;68071;45.062;7.356;2023-07-08T04:19:15;9.75;;;8.10;;
49998;SDS011;68071;45.062;7.356;2023-07-08T04:22:19;8.73;;;7.25;;
49998;SDS011;68071;45.062;7.356;2023-07-08T04:25:23;7.10;;;6.40;;
49998;SDS011;68071;45.062;7.356;2023-07-08T04:28:28;8.10;;;6.32;;
49998;SDS011;68071;45.062;7.356;2023-07-08T04:31:32;7.68;;;5.88;;
49998;SDS011;68071;45.062;7.356;2023-07-08T04:34:35;10.75;;;9.30;;
49998;SDS011;68071;45.062;7.356;2023-07-08T04:37:39;10.18;;;9.10;;
49998;SDS011;68071;45.062;7.356;2023-07-08T04:40:43;10.68;;;7.45;;
49998;SDS011;68071;45.062;7.356;2023-07-08T04:43:48;8.52;;;7.63;;
49998;SDS011;68071;45.062;7.356;2023-07-08T04:46:57;9.27;;;6.80;;
49998;SDS011;68071;45.062;7.356;2023-07-08T04:50:02;7.95;;;6.10;;
49998;SDS011;68071;45.062;7.356;2023-07-08T04:53:05;6.63;;;6.03;;
49998;SDS011;68071;45.062;7.356;2023-07-08T04:56:09;7.55;;;5.70;;
49998;SDS011;68071;45.062;7.356;2023-07-08T04:59:15;8.95;;;7.60;;
49998;SDS011;68071;45.062;7.356;2023-07-08T05:02:24;8.38;;;7.57;;
49998;SDS011;68071;45.062;7.356;2023-07-08T05:05:28;7.82;;;6.75;;
49998;SDS011;68071;45.062;7.356;2023-07-08T05:08:33;8.77;;;7.00;;
49998;SDS011;68071;45.062;7.356;2023-07-08T05:11:36;8.60;;;6.43;;
49998;SDS011;68071;45.062;7.356;2023-07-08T05:14:40;8.20;;;7.40;;
49998;SDS011;68071;45.062;7.356;2023-07-08T05:17:44;8.15;;;6.57;;
49998;SDS011;68071;45.062;7.356;2023-07-08T05:20:52;7.13;;;6.43;;
49998;SDS011;68071;45.062;7.356;2023-07-08T05:23:56;6.32;;;5.72;;
49998;SDS011;68071;45.062;7.356;2023-07-08T05:27:00;6.18;;;5.15;;
49998;SDS011;68071;45.062;7.356;2023-07-08T05:30:04;5.60;;;5.10;;
49998;SDS011;68071;45.062;7.356;2023-07-08T05:33:10;6.78;;;4.82;;
49998;SDS011;68071;45.062;7.356;2023-07-08T05:36:14;6.10;;;5.50;;
49998;SDS011;68071;45.062;7.356;2023-07-08T05:39:18;7.50;;;5.32;;
49998;SDS011;68071;45.062;7.356;2023-07-08T05:42:22;6.82;;;5.43;;
49998;SDS011;68071;45.062;7.356;2023-07-08T05:45:26;5.60;;;5.10;;
49998;SDS011;68071;45.062;7.356;2023-07-08T05:48:30;5.45;;;4.53;;
49998;SDS011;68071;45.062;7.356;2023-07-08T05:51:35;5.97;;;4.82;;
49998;SDS011;68071;45.062;7.356;2023-07-08T05:54:40;4.85;;;4.30;;
49998;SDS011;68071;45.062;7.356;2023-07-08T05:57:46;5.18;;;4.68;;
49998;SDS011;68071;45.062;7.356;2023-07-08T06:00:54;7.72;;;5.55;;
49998;SDS011;68071;45.062;7.356;2023-07-08T06:04:00;6.47;;;4.65;;
49998;SDS011;68071;45.062;7.356;2023-07-08T06:07:04;6.03;;;4.22;;
49998;SDS011;68071;45.062;7.356;2023-07-08T06:10:08;5.30;;;4.60;;
49998;SDS011;68071;45.062;7.356;2023-07-08T06:13:12;5.90;;;5.18;;
49998;SDS011;68071;45.062;7.356;2023-07-08T06:16:16;5.72;;;5.10;;
49998;SDS011;68071;45.062;7.356;2023-07-08T06:19:21;6.40;;;4.50;;
49998;SDS011;68071;45.062;7.356;2023-07-08T06:22:25;9.45;;;4.78;;
49998;SDS011;68071;45.062;7.356;2023-07-08T06:25:29;6.18;;;4.70;;
49998;SDS011;68071;45.062;7.356;2023-07-08T06:28:33;6.38;;;4.80;;
49998;SDS011;68071;45.062;7.356;2023-07-08T06:31:37;6.15;;;5.43;;
49998;SDS011;68071;45.062;7.356;2023-07-08T06:34:41;5.95;;;4.70;;
49998;SDS011;68071;45.062;7.356;2023-07-08T06:37:45;5.88;;;5.18;;
49998;SDS011;68071;45.062;7.356;2023-07-08T06:40:48;6.10;;;5.18;;
49998;SDS011;68071;45.062;7.356;2023-07-08T06:43:52;6.05;;;4.57;;
49998;SDS011;68071;45.062;7.356;2023-07-08T06:46:58;5.38;;;4.35;;
49998;SDS011;68071;45.062;7.356;2023-07-08T06:50:02;5.63;;;4.90;;
49998;SDS011;68071;45.062;7.356;2023-07-08T06:53:07;5.27;;;4.70;;
49998;SDS011;68071;45.062;7.356;2023-07-08T06:56:11;4.82;;;4.30;;
49998;SDS011;68071;45.062;7.356;2023-07-08T06:59:16;6.35;;;5.45;;
49998;SDS011;68071;45.062;7.356;2023-07-08T07:02:20;6.82;;;5.47;;
49998;SDS011;68071;45.062;7.356;2023-07-08T07:05:24;6.05;;;5.45;;
49998;SDS011;68071;45.062;7.356;2023-07-08T07:08:27;7.13;;;4.57;;
49998;SDS011;68071;45.062;7.356;2023-07-08T07:11:33;6.47;;;4.88;;
49998;SDS011;68071;45.062;7.356;2023-07-08T07:14:37;5.95;;;4.43;;
49998;SDS011;68071;45.062;7.356;2023-07-08T07:17:40;4.57;;;3.92;;
49998;SDS011;68071;45.062;7.356;2023-07-08T07:20:53;6.57;;;4.50;;
49998;SDS011;68071;45.062;7.356;2023-07-08T07:23:58;4.82;;;4.32;;
49998;SDS011;68071;45.062;7.356;2023-07-08T07:27:02;4.82;;;4.20;;
49998;SDS011;68071;45.062;7.356;2023-07-08T07:30:06;5.93;;;4.28;;
49998;SDS011;68071;45.062;7.356;2023-07-08T07:33:10;4.88;;;3.70;;
49998;SDS011;68071;45.062;7.356;2023-07-08T07:36:15;5.75;;;4.13;;
49998;SDS011;68071;45.062;7.356;2023-07-08T07:39:19;5.68;;;4.13;;
49998;SDS011;68071;45.062;7.356;2023-07-08T07:42:23;4.60;;;4.20;;
49998;SDS011;68071;45.062;7.356;2023-07-08T07:45:31;5.80;;;4.30;;
49998;SDS011;68071;45.062;7.356;2023-07-08T07:48:35;5.18;;;4.05;;
49998;SDS011;68071;45.062;7.356;2023-07-08T07:51:39;5.88;;;3.95;;
49998;SDS011;68071;45.062;7.356;2023-07-08T07:54:43;4.53;;;3.58;;
49998;SDS011;68071;45.062;7.356;2023-07-08T07:57:47;5.63;;;4.15;;
49998;SDS011;68071;45.062;7.356;2023-07-08T08:00:51;6.50;;;4.07;;
49998;SDS011;68071;45.062;7.356;2023-07-08T08:03:55;4.90;;;4.30;;
49998;SDS011;68071;45.062;7.356;2023-07-08T08:06:59;7.38;;;4.50;;
49998;SDS011;68071;45.062;7.356;2023-07-08T08:10:04;6.07;;;4.67;;
49998;SDS011;68071;45.062;7.356;2023-07-08T08:13:08;5.45;;;4.20;;
49998;SDS011;68071;45.062;7.356;2023-07-08T08:16:13;5.65;;;4.00;;
49998;SDS011;68071;45.062;7.356;2023-07-08T08:19:17;5.53;;;3.67;;
49998;SDS011;68071;45.062;7.356;2023-07-08T08:22:21;5.60;;;4.85;;
49998;SDS011;68071;45.062;7.356;2023-07-08T08:25:25;4.65;;;4.15;;
49998;SDS011;68071;45.062;7.356;2023-07-08T08:28:28;4.60;;;4.00;;
49998;SDS011;68071;45.062;7.356;2023-07-08T08:31:32;6.05;;;4.88;;
49998;SDS011;68071;45.062;7.356;2023-07-08T08:34:36;5.40;;;3.63;;
49998;SDS011;68071;45.062;7.356;2023-07-08T08:37:40;5.03;;;3.90;;
49998;SDS011;68071;45.062;7.356;2023-07-08T08:40:44;5.63;;;3.80;;
49998;SDS011;68071;45.062;7.356;2023-07-08T08:43:49;7.00;;;4.60;;
49998;SDS011;68071;45.062;7.356;2023-07-08T08:46:58;5.55;;;3.92;;
49998;SDS011;68071;45.062;7.356;2023-07-08T08:50:30;4.57;;;3.47;;
49998;SDS011;68071;45.062;7.356;2023-07-08T08:53:38;5.18;;;3.58;;
49998;SDS011;68071;45.062;7.356;2023-07-08T09:03:01;4.90;;;3.53;;
49998;SDS011;68071;45.062;7.356;2023-07-08T09:06:18;6.32;;;4.25;;
49998;SDS011;68071;45.062;7.356;2023-07-08T09:09:30;5.95;;;4.05;;
49998;SDS011;68071;45.062;7.356;2023-07-08T09:12:37;4.82;;;3.70;;
49998;SDS011;68071;45.062;7.356;2023-07-08T09:15:42;6.90;;;3.78;;
49998;SDS011;68071;45.062;7.356;2023-07-08T09:22:16;6.70;;;4.30;;
49998;SDS011;68071;45.062;7.356;2023-07-08T09:28:45;4.90;;;3.70;;
49998;SDS011;68071;45.062;7.356;2023-07-08T09:31:49;6.07;;;3.25;;
49998;SDS011;68071;45.062;7.356;2023-07-08T09:34:55;5.20;;;3.25;;
49998;SDS011;68071;45.062;7.356;2023-07-08T09:38:07;4.93;;;3.58;;
49998;SDS011;68071;45.062;7.356;2023-07-08T09:41:13;5.65;;;3.38;;
49998;SDS011;68071;45.062;7.356;2023-07-08T09:47:32;3.92;;;2.60;;
49998;SDS011;68071;45.062;7.356;2023-07-08T09:50:38;3.72;;;2.75;;
49998;SDS011;68071;45.062;7.356;2023-07-08T09:53:42;4.97;;;3.63;;
49998;SDS011;68071;45.062;7.356;2023-07-08T09:59:58;4.13;;;2.90;;
49998;SDS011;68071;45.062;7.356;2023-07-08T10:03:12;4.53;;;3.33;;
49998;SDS011;68071;45.062;7.356;2023-07-08T10:06:25;3.85;;;3.28;;
49998;SDS011;68071;45.062;7.356;2023-07-08T10:09:31;6.75;;;3.40;;
49998;SDS011;68071;45.062;7.356;2023-07-08T10:12:36;5.05;;;3.83;;
49998;SDS011;68071;45.062;7.356;2023-07-08T10:15:45;6.45;;;3.30;;
49998;SDS011;68071;45.062;7.356;2023-07-08T10:18:52;5.32;;;3.15;;
49998;SDS011;68071;45.062;7.356;2023-07-08T10:28:38;5.88;;;3.65;;
49998;SDS011;68071;45.062;7.356;2023-07-08T10:35:01;4.53;;;3.67;;
49998;SDS011;68071;45.062;7.356;2023-07-08T10:38:34;5.45;;;3.63;;
49998;SDS011;68071;45.062;7.356;2023-07-08T10:45:21;4.93;;;3.00;;
49998;SDS011;68071;45.062;7.356;2023-07-08T10:51:59;6.25;;;3.13;;
49998;SDS011;68071;45.062;7.356;2023-07-08T10:58:35;3.22;;;2.72;;
49998;SDS011;68071;45.062;7.356;2023-07-08T11:08:39;4.47;;;3.17;;
49998;SDS011;68071;45.062;7.356;2023-07-08T11:11:58;4.05;;;3.03;;
49998;SDS011;68071;45.062;7.356;2023-07-08T11:15:13;3.03;;;2.65;;
49998;SDS011;68071;45.062;7.356;2023-07-08T11:21:50;4.45;;;3.17;;
49998;SDS011;68071;45.062;7.356;2023-07-08T11:24:57;5.40;;;3.13;;
49998;SDS011;68071;45.062;7.356;2023-07-08T11:28:10;5.68;;;2.72;;
49998;SDS011;68071;45.062;7.356;2023-07-08T11:31:18;4.50;;;3.20;;
49998;SDS011;68071;45.062;7.356;2023-07-08T11:34:23;3.67;;;3.08;;
49998;SDS011;68071;45.062;7.356;2023-07-08T11:37:29;4.18;;;2.95;;
49998;SDS011;68071;45.062;7.356;2023-07-08T11:40:38;4.20;;;3.00;;
49998;SDS011;68071;45.062;7.356;2023-07-08T11:43:58;4.20;;;3.15;;
49998;SDS011;68071;45.062;7.356;2023-07-08T11:47:12;4.43;;;3.00;;
49998;SDS011;68071;45.062;7.356;2023-07-08T11:50:31;4.82;;;3.20;;
49998;SDS011;68071;45.062;7.356;2023-07-08T11:53:49;4.22;;;3.40;;
49998;SDS011;68071;45.062;7.356;2023-07-08T11:57:06;4.60;;;3.10;;
49998;SDS011;68071;45.062;7.356;2023-07-08T12:00:19;5.40;;;3.13;;
49998;SDS011;68071;45.062;7.356;2023-07-08T12:03:30;3.55;;;3.20;;
49998;SDS011;68071;45.062;7.356;2023-07-08T12:09:45;3.97;;;3.13;;
49998;SDS011;68071;45.062;7.356;2023-07-08T12:13:13;5.28;;;3.30;;
49998;SDS011;68071;45.062;7.356;2023-07-08T12:16:20;5.18;;;3.20;;
49998;SDS011;68071;45.062;7.356;2023-07-08T12:19:25;5.45;;;3.40;;
49998;SDS011;68071;45.062;7.356;2023-07-08T12:22:35;5.45;;;3.40;;
49998;SDS011;68071;45.062;7.356;2023-07-08T12:25:42;4.35;;;2.63;;
49998;SDS011;68071;45.062;7.356;2023-07-08T12:28:46;4.72;;;3.17;;
49998;SDS011;68071;45.062;7.356;2023-07-08T12:31:50;4.63;;;3.15;;
49998;SDS011;68071;45.062;7.356;2023-07-08T12:34:54;3.50;;;2.78;;
49998;SDS011;68071;45.062;7.356;2023-07-08T12:38:00;4.55;;;3.42;;
49998;SDS011;68071;45.062;7.356;2023-07-08T12:41:14;4.22;;;3.10;;
49998;SDS011;68071;45.062;7.356;2023-07-08T12:44:22;4.28;;;3.42;;
49998;SDS011;68071;45.062;7.356;2023-07-08T12:47:28;4.85;;;3.00;;
49998;SDS011;68071;45.062;7.356;2023-07-08T12:50:32;4.17;;;3.13;;
49998;SDS011;68071;45.062;7.356;2023-07-08T12:53:36;3.72;;;2.92;;
49998;SDS011;68071;45.062;7.356;2023-07-08T12:56:40;4.13;;;2.85;;
49998;SDS011;68071;45.062;7.356;2023-07-08T12:59:47;4.50;;;3.10;;
49998;SDS011;68071;45.062;7.356;2023-07-08T13:02:55;4.43;;;3.30;;
49998;SDS011;68071;45.062;7.356;2023-07-08T13:06:30;3.10;;;2.65;;
49998;SDS011;68071;45.062;7.356;2023-07-08T13:09:39;4.82;;;3.17;;
49998;SDS011;68071;45.062;7.356;2023-07-08T13:12:50;4.55;;;3.38;;
49998;SDS011;68071;45.062;7.356;2023-07-08T13:16:00;5.55;;;3.45;;
49998;SDS011;68071;45.062;7.356;2023-07-08T13:19:05;4.47;;;3.10;;
49998;SDS011;68071;45.062;7.356;2023-07-08T13:22:12;4.88;;;3.33;;
49998;SDS011;68071;45.062;7.356;2023-07-08T13:25:25;3.53;;;3.00;;
49998;SDS011;68071;45.062;7.356;2023-07-08T13:28:36;9.27;;;5.32;;
49998;SDS011;68071;45.062;7.356;2023-07-08T13:31:55;5.30;;;2.75;;
49998;SDS011;68071;45.062;7.356;2023-07-08T13:35:00;9.32;;;6.20;;
49998;SDS011;68071;45.062;7.356;2023-07-08T13:38:03;6.70;;;3.83;;
49998;SDS011;68071;45.062;7.356;2023-07-08T13:41:07;5.27;;;3.57;;
49998;SDS011;68071;45.062;7.356;2023-07-08T13:44:13;6.05;;;3.67;;
49998;SDS011;68071;45.062;7.356;2023-07-08T13:47:26;4.10;;;3.17;;
49998;SDS011;68071;45.062;7.356;2023-07-08T13:53:46;7.22;;;4.68;;
49998;SDS011;68071;45.062;7.356;2023-07-08T13:57:01;5.80;;;3.20;;
49998;SDS011;68071;45.062;7.356;2023-07-08T14:00:06;6.03;;;3.63;;
49998;SDS011;68071;45.062;7.356;2023-07-08T14:03:18;5.05;;;3.30;;
49998;SDS011;68071;45.062;7.356;2023-07-08T14:06:24;3.50;;;2.90;;
49998;SDS011;68071;45.062;7.356;2023-07-08T14:09:31;4.82;;;3.35;;
49998;SDS011;68071;45.062;7.356;2023-07-08T14:12:35;5.07;;;3.90;;
49998;SDS011;68071;45.062;7.356;2023-07-08T14:15:39;5.00;;;3.70;;
49998;SDS011;68071;45.062;7.356;2023-07-08T14:18:43;6.97;;;3.03;;
49998;SDS011;68071;45.062;7.356;2023-07-08T14:21:47;5.18;;;3.40;;
49998;SDS011;68071;45.062;7.356;2023-07-08T14:24:58;4.78;;;3.60;;
49998;SDS011;68071;45.062;7.356;2023-07-08T14:28:08;4.25;;;3.58;;
49998;SDS011;68071;45.062;7.356;2023-07-08T14:31:14;5.60;;;3.40;;
49998;SDS011;68071;45.062;7.356;2023-07-08T14:34:25;4.50;;;3.42;;
49998;SDS011;68071;45.062;7.356;2023-07-08T14:37:30;5.63;;;3.78;;
49998;SDS011;68071;45.062;7.356;2023-07-08T14:40:35;3.58;;;2.90;;
49998;SDS011;68071;45.062;7.356;2023-07-08T14:43:42;6.10;;;4.03;;
49998;SDS011;68071;45.062;7.356;2023-07-08T14:46:47;16.38;;;4.30;;
49998;SDS011;68071;45.062;7.356;2023-07-08T14:49:53;6.05;;;4.18;;
49998;SDS011;68071;45.062;7.356;2023-07-08T14:52:57;5.68;;;3.60;;
49998;SDS011;68071;45.062;7.356;2023-07-08T14:56:08;6.05;;;3.60;;
49998;SDS011;68071;45.062;7.356;2023-07-08T14:59:18;6.22;;;3.83;;
49998;SDS011;68071;45.062;7.356;2023-07-08T15:02:26;3.90;;;3.35;;
49998;SDS011;68071;45.062;7.356;2023-07-08T15:05:29;4.75;;;3.63;;
49998;SDS011;68071;45.062;7.356;2023-07-08T15:08:34;5.18;;;3.38;;
49998;SDS011;68071;45.062;7.356;2023-07-08T15:11:39;4.90;;;3.28;;
49998;SDS011;68071;45.062;7.356;2023-07-08T15:14:44;5.57;;;3.60;;
49998;SDS011;68071;45.062;7.356;2023-07-08T15:17:48;5.88;;;3.88;;
49998;SDS011;68071;45.062;7.356;2023-07-08T15:20:52;5.45;;;4.07;;
49998;SDS011;68071;45.062;7.356;2023-07-08T15:23:56;5.20;;;3.65;;
49998;SDS011;68071;45.062;7.356;2023-07-08T15:27:02;6.35;;;4.28;;
49998;SDS011;68071;45.062;7.356;2023-07-08T15:30:29;5.80;;;3.85;;
49998;SDS011;68071;45.062;7.356;2023-07-08T15:33:33;7.22;;;4.10;;
49998;SDS011;68071;45.062;7.356;2023-07-08T15:36:37;5.57;;;3.80;;
49998;SDS011;68071;45.062;7.356;2023-07-08T15:39:41;5.10;;;3.95;;
49998;SDS011;68071;45.062;7.356;2023-07-08T15:42:46;5.28;;;3.95;;
49998;SDS011;68071;45.062;7.356;2023-07-08T15:45:56;4.43;;;3.80;;
49998;SDS011;68071;45.062;7.356;2023-07-08T15:49:00;4.47;;;3.87;;
49998;SDS011;68071;45.062;7.356;2023-07-08T15:52:05;4.53;;;3.80;;
49998;SDS011;68071;45.062;7.356;2023-07-08T15:55:10;4.38;;;3.97;;
49998;SDS011;68071;45.062;7.356;2023-07-08T16:01:27;5.22;;;4.00;;
49998;SDS011;68071;45.062;7.356;2023-07-08T16:04:32;4.13;;;3.28;;
49998;SDS011;68071;45.062;7.356;2023-07-08T16:07:38;6.28;;;3.80;;
49998;SDS011;68071;45.062;7.356;2023-07-08T16:10:43;5.00;;;3.33;;
49998;SDS011;68071;45.062;7.356;2023-07-08T16:13:51;6.13;;;3.97;;
49998;SDS011;68071;45.062;7.356;2023-07-08T16:16:55;5.80;;;3.90;;
49998;SDS011;68071;45.062;7.356;2023-07-08T16:19:59;4.93;;;3.83;;
49998;SDS011;68071;45.062;7.356;2023-07-08T16:23:03;4.07;;;3.67;;
49998;SDS011;68071;45.062;7.356;2023-07-08T16:26:08;4.50;;;3.58;;
49998;SDS011;68071;45.062;7.356;2023-07-08T16:29:17;5.57;;;4.22;;
49998;SDS011;68071;45.062;7.356;2023-07-08T16:32:21;5.00;;;4.10;;
49998;SDS011;68071;45.062;7.356;2023-07-08T16:35:26;5.15;;;4.03;;
49998;SDS011;68071;45.062;7.356;2023-07-08T16:38:30;5.17;;;3.80;;
49998;SDS011;68071;45.062;7.356;2023-07-08T16:41:35;5.05;;;4.00;;
49998;SDS011;68071;45.062;7.356;2023-07-08T16:44:40;6.32;;;4.13;;
49998;SDS011;68071;45.062;7.356;2023-07-08T16:50:49;7.10;;;4.20;;
49998;SDS011;68071;45.062;7.356;2023-07-08T16:53:56;6.32;;;4.32;;
49998;SDS011;68071;45.062;7.356;2023-07-08T16:57:06;5.07;;;4.13;;
49998;SDS011;68071;45.062;7.356;2023-07-08T17:00:16;5.35;;;4.20;;
49998;SDS011;68071;45.062;7.356;2023-07-08T17:03:22;6.38;;;4.15;;
49998;SDS011;68071;45.062;7.356;2023-07-08T17:06:26;5.50;;;4.05;;
49998;SDS011;68071;45.062;7.356;2023-07-08T17:09:30;5.72;;;4.10;;
49998;SDS011;68071;45.062;7.356;2023-07-08T17:12:34;5.57;;;3.75;;
49998;SDS011;68071;45.062;7.356;2023-07-08T17:15:38;4.88;;;3.45;;
49998;SDS011;68071;45.062;7.356;2023-07-08T17:18:44;4.55;;;3.97;;
49998;SDS011;68071;45.062;7.356;2023-07-08T17:21:49;5.38;;;4.03;;
49998;SDS011;68071;45.062;7.356;2023-07-08T17:24:53;5.32;;;3.65;;
49998;SDS011;68071;45.062;7.356;2023-07-08T17:27:57;5.13;;;3.53;;
49998;SDS011;68071;45.062;7.356;2023-07-08T17:34:07;5.43;;;4.15;;
49998;SDS011;68071;45.062;7.356;2023-07-08T17:37:25;5.93;;;3.85;;
49998;SDS011;68071;45.062;7.356;2023-07-08T17:40:29;5.27;;;3.97;;
49998;SDS011;68071;45.062;7.356;2023-07-08T17:43:33;6.22;;;4.55;;
49998;SDS011;68071;45.062;7.356;2023-07-08T17:46:37;5.97;;;4.30;;
49998;SDS011;68071;45.062;7.356;2023-07-08T17:49:41;6.10;;;4.90;;
49998;SDS011;68071;45.062;7.356;2023-07-08T17:52:46;6.00;;;4.57;;
49998;SDS011;68071;45.062;7.356;2023-07-08T17:58:55;6.38;;;4.75;;
49998;SDS011;68071;45.062;7.356;2023-07-08T18:01:59;8.07;;;7.28;;
49998;SDS011;68071;45.062;7.356;2023-07-08T18:05:03;15.88;;;14.52;;
49998;SDS011;68071;45.062;7.356;2023-07-08T18:08:08;5.47;;;4.93;;
49998;SDS011;68071;45.062;7.356;2023-07-08T18:11:12;6.65;;;5.60;;
49998;SDS011;68071;45.062;7.356;2023-07-08T18:14:21;6.55;;;5.38;;
49998;SDS011;68071;45.062;7.356;2023-07-08T18:17:25;7.50;;;5.78;;
49998;SDS011;68071;45.062;7.356;2023-07-08T18:20:32;6.25;;;5.47;;
49998;SDS011;68071;45.062;7.356;2023-07-08T18:23:39;6.25;;;5.65;;
49998;SDS011;68071;45.062;7.356;2023-07-08T18:26:44;6.25;;;5.65;;
49998;SDS011;68071;45.062;7.356;2023-07-08T18:29:48;6.47;;;5.55;;
49998;SDS011;68071;45.062;7.356;2023-07-08T18:32:53;5.93;;;5.10;;
49998;SDS011;68071;45.062;7.356;2023-07-08T18:35:56;6.30;;;5.65;;
49998;SDS011;68071;45.062;7.356;2023-07-08T18:39:01;6.13;;;5.53;;
49998;SDS011;68071;45.062;7.356;2023-07-08T18:42:07;5.95;;;5.32;;
49998;SDS011;68071;45.062;7.356;2023-07-08T18:45:16;6.75;;;5.53;;
49998;SDS011;68071;45.062;7.356;2023-07-08T18:48:25;8.07;;;6.10;;
49998;SDS011;68071;45.062;7.356;2023-07-08T18:51:39;6.85;;;5.85;;
49998;SDS011;68071;45.062;7.356;2023-07-08T18:54:45;6.13;;;5.53;;
49998;SDS011;68071;45.062;7.356;2023-07-08T18:57:49;6.80;;;6.10;;
49998;SDS011;68071;45.062;7.356;2023-07-08T19:00:54;7.00;;;6.37;;
49998;SDS011;68071;45.062;7.356;2023-07-08T19:04:00;6.25;;;5.65;;
49998;SDS011;68071;45.062;7.356;2023-07-08T19:07:04;7.60;;;6.20;;
49998;SDS011;68071;45.062;7.356;2023-07-08T19:13:21;5.57;;;5.07;;
49998;SDS011;68071;45.062;7.356;2023-07-08T19:16:27;7.40;;;5.47;;
49998;SDS011;68071;45.062;7.356;2023-07-08T19:19:33;7.97;;;5.97;;
49998;SDS011;68071;45.062;7.356;2023-07-08T19:22:37;5.95;;;5.35;;
49998;SDS011;68071;45.062;7.356;2023-07-08T19:25:41;7.22;;;6.53;;
49998;SDS011;68071;45.062;7.356;2023-07-08T19:28:46;9.00;;;6.65;;
49998;SDS011;68071;45.062;7.356;2023-07-08T19:31:50;7.55;;;6.10;;
49998;SDS011;68071;45.062;7.356;2023-07-08T19:34:54;6.97;;;6.00;;
49998;SDS011;68071;45.062;7.356;2023-07-08T19:37:58;7.05;;;6.25;;
49998;SDS011;68071;45.062;7.356;2023-07-08T19:41:02;7.65;;;6.13;;
49998;SDS011;68071;45.062;7.356;2023-07-08T19:44:08;11.32;;;6.13;;
49998;SDS011;68071;45.062;7.356;2023-07-08T19:47:17;6.53;;;5.68;;
49998;SDS011;68071;45.062;7.356;2023-07-08T19:50:22;6.13;;;5.50;;
49998;SDS011;68071;45.062;7.356;2023-07-08T19:53:27;7.10;;;5.50;;
49998;SDS011;68071;45.062;7.356;2023-07-08T19:56:31;8.45;;;6.22;;
49998;SDS011;68071;45.062;7.356;2023-07-08T19:59:35;6.90;;;6.07;;
49998;SDS011;68071;45.062;7.356;2023-07-08T20:02:39;6.97;;;6.07;;
49998;SDS011;68071;45.062;7.356;2023-07-08T20:05:43;6.72;;;5.63;;